Time;durP1;ratioP1;P1;durP2;ratioP2;P2;SDS_P1;SDS_P2;PMS_P1;PMS_P2;Temp;Humidity;BMP_temperature;BMP_pressure;BME280_temperature;BME280_humidity;BME280_pressure;Samples;Min_cycle;Max_cycle;Signal;HPM_P1;HPM_P2
2023/09/08 00:01:44;;;;;;;8.10;4.00;;;14.60;99.90;13.90;101414;;;;589113;239;25132;-77
2023/09/08 00:04:14;;;;;;;4.90;4.00;;;14.60;99.90;13.90;101420;;;;589243;239;24073;-76
2023/09/08 00:06:41;;;;;;;8.77;4.33;;;14.60;99.90;13.90;101414;;;;589122;239;24135;-77
2023/09/08 00:09:09;;;;;;;7.17;4.70;;;14.50;99.90;13.80;101414;;;;589324;239;24071;-77
2023/09/08 00:11:37;;;;;;;5.10;4.43;;;14.50;99.90;13.80;101408;;;;589157;239;24033;-75
2023/09/08 00:14:05;;;;;;;6.13;3.97;;;14.50;99.90;13.70;101414;;;;589348;239;24049;-76
2023/09/08 00:16:33;;;;;;;5.60;3.97;;;14.40;99.90;13.70;101405;;;;589268;239;24107;-75
2023/09/08 00:19:01;;;;;;;7.33;3.70;;;14.40;99.90;13.70;101412;;;;589132;239;24067;-76
2023/09/08 00:21:28;;;;;;;5.00;4.00;;;14.40;99.90;13.70;101395;;;;584845;239;24024;-75
2023/09/08 00:23:57;;;;;;;8.03;4.10;;;14.30;99.90;13.60;101413;;;;589616;239;24016;-75
2023/09/08 00:26:26;;;;;;;6.80;4.33;;;14.20;99.90;13.60;101402;;;;589344;239;24066;-76
2023/09/08 00:28:54;;;;;;;5.33;4.60;;;14.20;99.90;13.60;101402;;;;589239;239;24105;-76
2023/09/08 00:31:22;;;;;;;4.83;4.33;;;14.20;99.90;13.50;101400;;;;589069;239;24088;-76
2023/09/08 00:33:50;;;;;;;4.50;3.63;;;14.20;99.90;13.50;101398;;;;590441;239;24027;-75
2023/09/08 00:36:19;;;;;;;4.53;3.83;;;14.20;99.90;13.40;101396;;;;590313;239;24122;-76
2023/09/08 00:38:45;;;;;;;5.00;4.40;;;14.10;99.90;13.40;101389;;;;590208;239;24050;-75
2023/09/08 00:41:17;;;;;;;9.17;3.87;;;14.10;99.90;13.40;101393;;;;589995;239;24118;-76
2023/09/08 00:43:41;;;;;;;5.40;4.17;;;14.00;99.90;13.40;101397;;;;590147;239;24016;-75
2023/09/08 00:46:13;;;;;;;4.07;3.43;;;14.00;99.90;13.30;101390;;;;589795;239;24081;-76
2023/09/08 00:48:37;;;;;;;4.40;3.87;;;14.00;99.90;13.30;101387;;;;589463;239;24079;-77
2023/09/08 00:51:07;;;;;;;6.63;3.73;;;13.90;99.90;13.30;101386;;;;589744;239;24034;-76
2023/09/08 00:53:35;;;;;;;5.57;4.10;;;13.90;99.90;13.30;101389;;;;589213;239;24095;-76
2023/09/08 00:56:03;;;;;;;4.97;4.27;;;13.90;99.90;13.20;101383;;;;589861;239;24057;-77
2023/09/08 00:58:31;;;;;;;16.87;9.97;;;13.90;99.90;13.20;101387;;;;585029;239;24040;-76
2023/09/08 01:00:59;;;;;;;18.70;13.00;;;13.90;99.90;13.20;101384;;;;589473;239;24075;-75
2023/09/08 01:03:27;;;;;;;23.87;16.23;;;13.90;99.90;13.20;101388;;;;589734;235;24023;-76
2023/09/08 01:05:55;;;;;;;10.57;7.53;;;13.80;99.90;13.20;101380;;;;590062;239;24090;-75
2023/09/08 01:08:26;;;;;;;11.17;6.07;;;13.80;99.90;13.20;101381;;;;589663;239;24083;-75
2023/09/08 01:10:51;;;;;;;6.00;5.37;;;13.80;99.90;13.10;101377;;;;584656;239;24042;-76
2023/09/08 01:13:19;;;;;;;8.23;6.57;;;13.80;99.90;13.10;101378;;;;584487;239;42254;-76
2023/09/08 01:15:47;;;;;;;7.10;5.90;;;13.70;99.90;13.10;101377;;;;584487;239;35020;-76
2023/09/08 01:18:15;;;;;;;10.47;5.43;;;13.80;99.90;13.10;101379;;;;588526;239;24089;-76
2023/09/08 01:21:05;;;;;;;8.63;4.70;;;13.80;99.90;13.10;101370;;;;589203;239;24077;-77
2023/09/08 01:23:53;;;;;;;5.63;4.43;;;13.70;99.90;13.00;101368;;;;580374;239;24044;-78
2023/09/08 01:26:22;;;;;;;5.33;4.30;;;13.60;99.90;13.00;101368;;;;589618;239;24054;-78
2023/09/08 01:28:51;;;;;;;4.30;3.90;;;13.60;99.90;13.00;101366;;;;589227;239;24129;-77
2023/09/08 01:31:18;;;;;;;17.50;4.30;;;13.60;99.90;12.90;101359;;;;589076;239;24052;-77
2023/09/08 01:33:46;;;;;;;6.33;4.47;;;13.60;99.90;12.90;101350;;;;589608;239;24059;-77
2023/09/08 01:36:14;;;;;;;6.50;4.70;;;13.60;99.90;12.90;101356;;;;589260;239;24092;-77
2023/09/08 01:38:42;;;;;;;6.40;4.77;;;13.50;99.90;12.80;101360;;;;589184;239;24038;-77
2023/09/08 01:41:10;;;;;;;5.97;5.03;;;13.50;99.90;12.80;101352;;;;589251;239;24033;-77
2023/09/08 01:43:38;;;;;;;6.37;5.07;;;13.50;99.90;12.80;101350;;;;589217;239;24049;-75
2023/09/08 01:46:06;;;;;;;8.20;5.07;;;13.50;99.90;12.80;101347;;;;590910;239;24157;-76
2023/09/08 01:48:35;;;;;;;8.53;5.43;;;13.40;99.90;12.70;101358;;;;590558;239;24066;-75
2023/09/08 01:51:03;;;;;;;7.67;5.50;;;13.40;99.90;12.70;101356;;;;590395;239;23074;-77
2023/09/08 01:53:31;;;;;;;6.50;5.80;;;13.30;99.90;12.70;101356;;;;590326;239;24074;-76
2023/09/08 01:55:59;;;;;;;11.30;6.73;;;13.30;99.90;12.70;101342;;;;590710;239;24065;-77
2023/09/08 01:58:27;;;;;;;10.63;7.07;;;13.30;99.90;12.70;101351;;;;590752;239;24033;-76
2023/09/08 02:00:55;;;;;;;12.33;9.07;;;13.30;99.90;12.70;101347;;;;589860;239;24082;-76
2023/09/08 02:03:23;;;;;;;12.03;7.93;;;13.30;99.90;12.60;101343;;;;589726;235;24039;-75
2023/09/08 02:05:51;;;;;;;12.30;7.37;;;13.30;99.90;12.70;101347;;;;589866;239;24040;-75
2023/09/08 02:08:19;;;;;;;8.67;7.00;;;13.30;99.90;12.70;101336;;;;589808;239;24032;-75
2023/09/08 02:10:47;;;;;;;8.83;7.40;;;13.30;99.90;12.70;101339;;;;590087;239;24083;-75
2023/09/08 02:13:15;;;;;;;15.70;7.43;;;13.30;99.90;12.70;101334;;;;590108;239;24075;-74
2023/09/08 02:15:42;;;;;;;9.63;7.03;;;13.30;99.90;12.70;101339;;;;590051;239;24033;-76
2023/09/08 02:18:11;;;;;;;10.27;7.37;;;13.30;99.90;12.70;101340;;;;589908;239;24066;-76
2023/09/08 02:20:38;;;;;;;9.03;7.53;;;13.30;99.90;12.70;101344;;;;589840;239;24081;-76
2023/09/08 02:23:06;;;;;;;11.13;8.10;;;13.30;99.90;12.70;101342;;;;589705;239;24028;-76
2023/09/08 02:25:35;;;;;;;10.13;7.83;;;13.40;99.90;12.70;101340;;;;589079;239;24032;-73
2023/09/08 02:28:03;;;;;;;10.90;7.80;;;13.30;99.90;12.70;101348;;;;589290;239;24102;-76
2023/09/08 02:30:31;;;;;;;12.37;8.57;;;13.40;99.90;12.70;101339;;;;589195;239;24083;-76
2023/09/08 02:32:59;;;;;;;12.30;8.93;;;13.40;99.90;12.80;101337;;;;589351;239;24029;-75
2023/09/08 02:35:28;;;;;;;11.97;8.90;;;13.50;99.90;12.90;101339;;;;589326;239;24046;-76
2023/09/08 02:37:57;;;;;;;13.97;7.97;;;13.50;99.90;12.90;101332;;;;589153;239;24043;-76
2023/09/08 02:40:25;;;;;;;19.63;8.40;;;13.60;99.90;12.90;101324;;;;589313;239;24146;-76
2023/09/08 02:42:53;;;;;;;10.33;7.87;;;13.50;99.90;13.00;101322;;;;589152;239;25063;-76
2023/09/08 02:45:21;;;;;;;11.93;9.20;;;13.60;99.90;13.00;101321;;;;589363;239;24126;-74
2023/09/08 02:47:53;;;;;;;15.27;8.97;;;13.60;99.90;13.00;101318;;;;589124;239;24035;-76
2023/09/08 02:50:17;;;;;;;10.37;7.97;;;13.60;99.90;13.00;101326;;;;588643;239;25158;-75
2023/09/08 02:52:45;;;;;;;11.20;7.60;;;13.60;99.90;13.00;101325;;;;589283;239;24098;-75
2023/09/08 02:55:16;;;;;;;11.83;8.77;;;13.60;99.90;13.00;101316;;;;589617;239;24087;-76
2023/09/08 02:57:41;;;;;;;10.17;7.70;;;13.60;99.90;13.00;101308;;;;590957;239;23141;-75
2023/09/08 03:00:09;;;;;;;12.13;8.37;;;13.60;99.90;12.90;101308;;;;590714;239;24018;-75
2023/09/08 03:02:37;;;;;;;11.23;7.73;;;13.60;99.90;12.90;101314;;;;590171;239;24082;-76
2023/09/08 03:05:05;;;;;;;10.37;7.93;;;13.50;99.90;12.90;101308;;;;589894;239;24047;-75
2023/09/08 03:07:35;;;;;;;14.70;9.10;;;13.50;99.90;12.90;101304;;;;585163;239;24145;-76
2023/09/08 03:10:00;;;;;;;13.70;7.97;;;13.50;99.90;12.90;101309;;;;589648;239;24062;-76
2023/09/08 03:12:28;;;;;;;13.47;7.97;;;13.50;99.90;12.90;101305;;;;589716;239;24036;-76
2023/09/08 03:14:56;;;;;;;9.33;8.20;;;13.50;99.90;12.90;101302;;;;589658;239;24059;-76
2023/09/08 03:17:24;;;;;;;11.60;8.50;;;13.50;99.90;12.90;101296;;;;589545;239;24022;-77
2023/09/08 03:19:52;;;;;;;15.47;8.10;;;13.50;99.90;12.80;101295;;;;589520;239;24085;-75
2023/09/08 03:22:21;;;;;;;9.73;8.33;;;13.50;99.90;12.90;101298;;;;589922;239;24082;-74
2023/09/08 03:24:49;;;;;;;8.43;6.90;;;13.40;99.90;12.80;101303;;;;589857;239;24019;-74
2023/09/08 03:27:17;;;;;;;8.93;7.23;;;13.40;99.90;12.80;101293;;;;590123;239;25103;-74
2023/09/08 03:29:45;;;;;;;11.47;7.20;;;13.40;99.90;12.80;101300;;;;590075;239;24033;-74
2023/09/08 03:32:12;;;;;;;11.50;7.80;;;13.40;99.90;12.80;101303;;;;589730;239;24136;-74
2023/09/08 03:34:41;;;;;;;9.77;7.60;;;13.40;99.90;12.80;101294;;;;589446;239;24097;-75
2023/09/08 03:37:09;;;;;;;9.37;7.53;;;13.40;99.90;12.80;101299;;;;589443;239;24053;-75
2023/09/08 03:39:37;;;;;;;15.53;7.93;;;13.40;99.90;12.80;101298;;;;589613;239;24091;-76
2023/09/08 03:42:05;;;;;;;15.40;7.57;;;13.40;99.90;12.80;101299;;;;589480;239;24057;-76
2023/09/08 03:44:33;;;;;;;10.57;7.33;;;13.40;99.90;12.70;101298;;;;589381;239;24012;-76
2023/09/08 03:47:02;;;;;;;12.50;7.40;;;13.30;99.90;12.70;101296;;;;589345;239;24033;-76
2023/09/08 03:49:32;;;;;;;10.50;7.13;;;13.30;99.90;12.60;101298;;;;589200;239;24048;-75
2023/09/08 03:51:58;;;;;;;8.53;7.63;;;13.20;99.90;12.60;101301;;;;589111;239;24078;-76
2023/09/08 03:54:24;;;;;;;7.53;6.77;;;13.20;99.90;12.50;101301;;;;589195;239;24137;-75
2023/09/08 03:56:52;;;;;;;12.10;7.70;;;13.10;99.90;12.50;101301;;;;589640;239;24040;-76
2023/09/08 03:59:21;;;;;;;10.27;7.10;;;13.10;99.90;12.40;101297;;;;589698;239;24069;-75
2023/09/08 04:01:48;;;;;;;11.60;7.43;;;13.00;99.90;12.40;101299;;;;590133;239;24056;-76
2023/09/08 04:04:20;;;;;;;10.13;7.27;;;13.00;99.90;12.40;101296;;;;589869;239;24154;-76
2023/09/08 04:06:44;;;;;;;10.80;7.47;;;13.00;99.90;12.40;101296;;;;588842;239;24039;-74
2023/09/08 04:09:12;;;;;;;9.07;7.60;;;13.00;99.90;12.40;101296;;;;591222;239;24041;-76
2023/09/08 04:11:40;;;;;;;10.60;7.10;;;12.90;99.90;12.40;101303;;;;590505;239;24089;-76
2023/09/08 04:14:08;;;;;;;8.47;7.17;;;12.90;99.90;12.40;101303;;;;590330;239;24147;-75
2023/09/08 04:16:36;;;;;;;11.07;8.00;;;12.90;99.90;12.40;101302;;;;590197;239;24104;-77
2023/09/08 04:19:08;;;;;;;9.30;7.23;;;13.00;99.90;12.40;101293;;;;589727;239;24056;-76
2023/09/08 04:21:35;;;;;;;10.37;6.73;;;13.00;99.90;12.50;101296;;;;589513;239;24061;-74
2023/09/08 04:24:00;;;;;;;10.67;7.17;;;13.00;99.90;12.50;101299;;;;587887;239;24088;-75
2023/09/08 04:26:27;;;;;;;9.23;7.23;;;13.10;99.90;12.60;101292;;;;590439;239;24076;-74
2023/09/08 04:28:55;;;;;;;10.43;6.97;;;13.20;99.90;12.70;101295;;;;590597;239;24042;-75
2023/09/08 04:31:23;;;;;;;8.97;7.20;;;13.30;99.90;12.80;101291;;;;590057;239;24034;-75
2023/09/08 04:33:53;;;;;;;10.87;9.77;;;13.40;99.90;12.90;101291;;;;580270;239;36469;-74
2023/09/08 04:36:19;;;;;;;15.15;11.63;;;13.50;99.90;13.10;101290;;;;584355;239;45899;-75
2023/09/08 04:38:47;;;;;;;12.90;8.37;;;13.60;99.90;13.20;101287;;;;585112;239;24061;-76
2023/09/08 04:41:15;;;;;;;8.77;7.60;;;13.70;99.90;13.30;101283;;;;589496;239;24055;-76
2023/09/08 04:43:43;;;;;;;12.00;8.30;;;13.80;99.90;13.40;101296;;;;589446;239;24043;-75
2023/09/08 04:46:11;;;;;;;10.73;7.97;;;13.90;99.90;13.50;101299;;;;589261;239;24043;-76
2023/09/08 04:48:39;;;;;;;9.77;8.10;;;14.00;99.90;13.60;101297;;;;589154;239;24107;-75
2023/09/08 04:51:07;;;;;;;13.43;8.27;;;14.10;99.90;13.70;101295;;;;589362;239;24075;-75
2023/09/08 04:53:36;;;;;;;9.20;7.43;;;14.20;99.90;13.80;101295;;;;589258;239;24102;-76
2023/09/08 04:56:03;;;;;;;12.87;8.57;;;14.30;99.90;13.90;101293;;;;589335;239;24034;-75
2023/09/08 04:58:30;;;;;;;12.17;8.43;;;14.50;99.90;14.10;101294;;;;589579;239;24016;-75
2023/09/08 05:00:58;;;;;;;13.83;9.17;;;14.60;99.90;14.20;101299;;;;589675;239;24041;-76
2023/09/08 05:03:30;;;;;;;10.57;7.80;;;14.70;99.90;14.30;101295;;;;589646;235;24012;-75
2023/09/08 05:05:54;;;;;;;8.80;7.90;;;14.80;99.90;14.50;101296;;;;588837;239;24116;-76
2023/09/08 05:08:22;;;;;;;12.70;8.50;;;15.00;99.90;14.90;101305;;;;589282;239;24082;-75
2023/09/08 05:10:50;;;;;;;16.07;9.93;;;15.30;99.90;16.10;101300;;;;589164;239;24100;-75
2023/09/08 05:13:18;;;;;;;14.73;9.63;;;16.30;99.90;17.50;101304;;;;589315;239;23163;-75
2023/09/08 05:15:48;;;;;;;15.53;11.77;;;17.70;99.90;18.80;101300;;;;589296;239;24059;-77
2023/09/08 05:18:14;;;;;;;14.83;10.73;;;19.00;99.90;20.10;101309;;;;589037;239;24089;-77
2023/09/08 05:20:42;;;;;;;11.63;9.70;;;20.20;99.90;21.30;101306;;;;590814;239;24175;-76
2023/09/08 05:23:10;;;;;;;8.13;7.33;;;21.50;99.90;22.60;101314;;;;590260;239;23090;-77
2023/09/08 05:25:38;;;;;;;13.37;7.17;;;22.90;99.90;23.70;101325;;;;585735;239;23082;-77
2023/09/08 05:28:05;;;;;;;7.33;5.83;;;24.10;99.90;24.70;101323;;;;590364;239;24056;-77
2023/09/08 05:30:34;;;;;;;6.10;4.77;;;26.10;99.90;25.60;101322;;;;590204;239;23036;-77
2023/09/08 05:33:03;;;;;;;9.37;5.40;;;26.80;99.90;26.40;101315;;;;590183;239;23041;-77
2023/09/08 05:35:31;;;;;;;9.07;5.17;;;26.70;99.90;26.90;101319;;;;589745;239;23038;-76
2023/09/08 05:37:59;;;;;;;5.90;4.65;;;27.40;99.90;27.50;101309;;;;589716;239;23072;-76
2023/09/08 05:40:27;;;;;;;5.25;4.50;;;27.90;99.90;28.00;101304;;;;589389;239;23051;-77
2023/09/08 05:42:54;;;;;;;11.25;5.07;;;28.50;99.90;28.70;101307;;;;589531;239;24134;-76
2023/09/08 05:45:22;;;;;;;7.45;5.32;;;29.10;99.90;29.40;101301;;;;584387;239;34967;-75
2023/09/08 05:47:50;;;;;;;6.25;5.12;;;29.80;99.90;30.00;101300;;;;589417;239;23079;-76
2023/09/08 05:50:18;;;;;;;11.70;5.45;;;30.30;99.90;30.70;101306;;;;589569;239;23048;-75
2023/09/08 05:52:46;;;;;;;12.25;5.20;;;31.10;99.90;31.40;101303;;;;589448;239;23040;-76
2023/09/08 05:55:14;;;;;;;13.07;5.43;;;31.70;99.90;32.00;101306;;;;589461;239;23053;-76
2023/09/08 05:57:42;;;;;;;11.02;5.72;;;32.30;98.90;32.70;101305;;;;589676;239;23062;-76
2023/09/08 06:00:13;;;;;;;6.60;4.82;;;32.90;96.30;33.30;101314;;;;589632;239;25179;-77
2023/09/08 06:02:38;;;;;;;6.55;4.75;;;33.50;93.00;33.80;101314;;;;589480;239;23046;-76
2023/09/08 06:05:06;;;;;;;5.87;4.43;;;34.10;90.50;34.40;101318;;;;589194;239;23081;-76
2023/09/08 06:07:34;;;;;;;7.53;4.47;;;34.60;86.70;35.00;101314;;;;589318;239;23052;-76
2023/09/08 06:10:02;;;;;;;4.97;4.22;;;35.20;82.50;35.60;101304;;;;589211;239;23043;-76
2023/09/08 06:12:29;;;;;;;5.00;4.43;;;35.90;79.20;36.30;101315;;;;589433;239;23046;-77
2023/09/08 06:14:57;;;;;;;5.57;4.55;;;36.50;75.00;37.10;101315;;;;589270;239;23029;-75
2023/09/08 06:17:26;;;;;;;12.48;4.93;;;37.90;68.40;37.70;101315;;;;589253;239;23052;-76
2023/09/08 06:19:55;;;;;;;16.23;4.60;;;38.50;65.10;38.30;101320;;;;589373;239;23059;-76
2023/09/08 06:22:23;;;;;;;12.48;4.93;;;39.00;62.90;38.80;101319;;;;589217;239;23067;-77
2023/09/08 06:24:52;;;;;;;4.70;4.30;;;39.50;60.80;39.40;101324;;;;589268;239;23117;-77
2023/09/08 06:27:21;;;;;;;7.60;4.68;;;40.10;59.20;40.00;101331;;;;589239;239;23036;-77
2023/09/08 06:29:49;;;;;;;6.32;4.37;;;40.10;59.20;40.60;101321;;;;589538;239;23035;-76
2023/09/08 06:32:17;;;;;;;13.07;4.20;;;40.70;57.80;41.10;101321;;;;591142;239;23064;-76
2023/09/08 06:34:45;;;;;;;11.88;4.62;;;41.20;56.40;41.40;101334;;;;590585;239;23037;-77
2023/09/08 06:37:12;;;;;;;8.70;3.92;;;41.70;55.20;41.70;101336;;;;590093;239;23056;-77
2023/09/08 06:39:40;;;;;;;14.52;5.43;;;42.00;54.30;42.10;101331;;;;584765;239;34961;-77
2023/09/08 06:42:08;;;;;;;12.73;5.47;;;42.40;52.80;42.40;101332;;;;589911;239;23088;-77
2023/09/08 06:44:36;;;;;;;9.20;4.70;;;42.70;52.20;42.80;101330;;;;585287;239;23030;-77
2023/09/08 06:47:06;;;;;;;7.00;4.50;;;42.90;51.70;43.10;101332;;;;589664;239;23030;-77
2023/09/08 06:49:32;;;;;;;4.12;3.72;;;43.30;51.30;43.50;101336;;;;585118;239;23074;-77
2023/09/08 06:52:00;;;;;;;4.80;4.30;;;43.70;50.70;44.00;101339;;;;589602;239;23092;-77
2023/09/08 06:54:28;;;;;;;6.03;4.03;;;44.10;50.00;44.30;101329;;;;589594;239;23021;-77
2023/09/08 06:56:57;;;;;;;9.35;4.53;;;44.80;48.50;44.70;101339;;;;589641;239;23022;-76
2023/09/08 06:59:25;;;;;;;9.63;4.67;;;45.20;47.30;45.00;101331;;;;584949;239;34957;-77
2023/09/08 07:01:53;;;;;;;14.18;4.90;;;45.20;47.30;45.00;101335;;;;589820;239;23106;-78
2023/09/08 07:04:24;;;;;;;10.02;4.93;;;45.30;47.20;45.40;101333;;;;584419;239;45859;-77
2023/09/08 07:06:50;;;;;;;7.50;4.10;;;45.60;47.00;45.70;101343;;;;589514;239;23071;-77
2023/09/08 07:09:17;;;;;;;5.50;4.10;;;46.00;46.80;46.20;101338;;;;589142;239;24050;-78
2023/09/08 07:11:45;;;;;;;7.20;3.72;;;46.40;45.90;46.70;101341;;;;589265;239;23029;-77
2023/09/08 07:14:16;;;;;;;8.23;3.95;;;46.80;45.70;47.00;101338;;;;589160;239;23068;-76
2023/09/08 07:16:41;;;;;;;10.82;4.10;;;47.20;45.10;47.40;101338;;;;588833;239;23051;-76
2023/09/08 07:19:09;;;;;;;4.62;3.90;;;47.50;44.50;47.80;101335;;;;589280;239;23029;-77
2023/09/08 07:21:36;;;;;;;11.38;4.68;;;47.90;44.30;48.10;101331;;;;589112;239;23102;-76
2023/09/08 07:24:04;;;;;;;10.40;4.40;;;48.30;43.50;48.50;101333;;;;589304;239;23031;-76
2023/09/08 07:26:32;;;;;;;6.50;4.00;;;48.70;43.20;48.70;101335;;;;589159;239;23095;-77
2023/09/08 07:29:00;;;;;;;5.40;3.97;;;49.00;42.80;49.00;101330;;;;589623;239;23043;-78
2023/09/08 07:31:28;;;;;;;8.70;4.00;;;49.10;42.30;49.10;101333;;;;589605;239;23042;-77
2023/09/08 07:33:56;;;;;;;9.95;4.43;;;49.30;41.90;49.30;101336;;;;589645;239;24106;-78
2023/09/08 07:36:24;;;;;;;8.45;3.75;;;49.60;41.40;49.40;101333;;;;589638;239;23030;-77
2023/09/08 07:38:52;;;;;;;5.12;3.47;;;49.60;41.70;49.70;101329;;;;589208;239;24068;-76
2023/09/08 07:41:23;;;;;;;7.90;3.92;;;49.80;40.50;49.70;101332;;;;589322;239;23036;-76
2023/09/08 07:43:48;;;;;;;6.60;3.45;;;50.00;40.90;49.80;101334;;;;590273;239;23098;-76
2023/09/08 07:46:16;;;;;;;3.90;3.65;;;50.10;40.70;50.20;101340;;;;590183;239;23060;-76
2023/09/08 07:48:43;;;;;;;5.70;3.37;;;50.30;40.20;50.30;101336;;;;590054;239;23049;-76
2023/09/08 07:51:11;;;;;;;8.30;3.92;;;50.50;39.90;50.40;101329;;;;589894;239;23049;-77
2023/09/08 07:53:39;;;;;;;8.43;3.60;;;50.60;40.00;50.50;101345;;;;589851;239;23037;-77
2023/09/08 07:56:08;;;;;;;6.75;3.62;;;50.50;39.20;50.40;101336;;;;589749;239;23038;-77
2023/09/08 07:58:36;;;;;;;3.92;3.45;;;50.40;39.50;50.30;101346;;;;590131;239;24075;-77
2023/09/08 08:01:04;;;;;;;4.18;3.87;;;50.50;39.40;50.20;101345;;;;589296;239;23052;-77
2023/09/08 08:03:32;;;;;;;3.37;3.17;;;50.40;39.10;50.30;101344;;;;589868;235;23080;-77
2023/09/08 08:06:00;;;;;;;3.70;3.50;;;50.40;39.10;50.40;101351;;;;589900;239;23089;-77
2023/09/08 08:08:28;;;;;;;5.55;4.00;;;50.40;38.80;50.20;101356;;;;589901;239;23033;-78
2023/09/08 08:10:55;;;;;;;3.70;3.40;;;50.20;39.00;50.20;101352;;;;589565;239;24099;-77
2023/09/08 08:13:23;;;;;;;6.50;3.37;;;50.30;38.80;50.30;101360;;;;589446;239;23084;-77
2023/09/08 08:15:51;;;;;;;6.03;3.45;;;50.40;39.00;50.30;101355;;;;589361;239;23045;-78
2023/09/08 08:18:19;;;;;;;5.25;4.20;;;50.60;39.00;50.60;101356;;;;584274;239;45791;-78
2023/09/08 08:20:47;;;;;;;3.97;3.55;;;50.80;38.60;50.30;101352;;;;589155;239;23064;-77
2023/09/08 08:23:15;;;;;;;3.87;3.58;;;50.80;38.30;50.40;101360;;;;589251;239;23043;-77
2023/09/08 08:25:43;;;;;;;3.85;3.30;;;50.80;38.60;50.80;101366;;;;589082;239;23125;-77
2023/09/08 08:28:11;;;;;;;9.10;3.60;;;51.00;38.20;50.80;101360;;;;589006;239;24084;-78
2023/09/08 08:30:39;;;;;;;11.90;4.22;;;51.10;38.50;51.10;101359;;;;589142;239;24176;-78
2023/09/08 08:33:07;;;;;;;31.70;5.40;;;51.40;38.00;51.20;101361;;;;589496;239;24095;-77
2023/09/08 08:35:35;;;;;;;15.85;4.87;;;51.60;37.50;51.40;101360;;;;589528;239;23044;-77
2023/09/08 08:38:03;;;;;;;5.40;3.62;;;51.80;37.60;51.60;101356;;;;589553;239;23046;-77
2023/09/08 08:40:34;;;;;;;6.05;3.70;;;52.40;37.20;51.70;101359;;;;589322;239;23103;-77
2023/09/08 08:43:00;;;;;;;6.60;3.37;;;52.50;37.00;51.80;101352;;;;588908;239;24076;-77
2023/09/08 08:45:28;;;;;;;3.50;3.30;;;52.50;36.90;52.10;101355;;;;589131;239;24088;-77
2023/09/08 08:47:56;;;;;;;5.97;3.60;;;52.90;36.80;52.30;101348;;;;589282;239;23073;-78
2023/09/08 08:50:24;;;;;;;3.72;3.33;;;53.10;36.20;52.60;101360;;;;588999;239;23122;-77
2023/09/08 08:52:52;;;;;;;3.03;2.75;;;53.40;35.80;52.00;101351;;;;589230;239;23044;-77
2023/09/08 08:55:19;;;;;;;3.67;2.90;;;53.00;35.10;51.50;101348;;;;590653;239;23054;-76
2023/09/08 08:57:51;;;;;;;3.12;2.70;;;52.40;35.80;51.20;101346;;;;590539;239;23051;-77
2023/09/08 09:00:18;;;;;;;3.20;3.00;;;52.00;35.70;51.50;101349;;;;589740;239;23037;-77
2023/09/08 09:02:44;;;;;;;3.28;2.75;;;52.50;34.90;51.80;101346;;;;590332;239;24099;-77
2023/09/08 09:05:13;;;;;;;3.05;2.95;;;52.90;35.60;52.00;101341;;;;589954;239;24096;-76
2023/09/08 09:07:43;;;;;;;3.22;3.03;;;52.80;35.10;52.10;101342;;;;589770;239;23138;-77
2023/09/08 09:10:11;;;;;;;4.05;3.20;;;53.10;35.30;52.20;101343;;;;589875;239;23088;-77
2023/09/08 09:12:40;;;;;;;3.33;3.03;;;53.40;35.40;52.20;101332;;;;589442;239;23053;-76
2023/09/08 09:15:11;;;;;;;8.25;3.70;;;53.50;35.60;52.40;101335;;;;589395;239;23042;-77
2023/09/08 09:17:39;;;;;;;12.30;3.92;;;53.70;35.20;52.50;101343;;;;589451;239;23063;-77
2023/09/08 09:20:19;;;;;;;7.80;3.75;;;53.70;35.10;52.50;101346;;;;589673;239;23034;-76
2023/09/08 09:22:43;;;;;;;6.70;3.78;;;53.70;34.90;52.40;101340;;;;589732;239;23056;-78
2023/09/08 09:25:24;;;;;;;4.37;3.80;;;53.70;35.00;52.40;101339;;;;585712;239;23106;-78
2023/09/08 09:27:53;;;;;;;14.10;3.97;;;53.90;35.00;52.60;101339;;;;589551;239;23069;-77
2023/09/08 09:30:22;;;;;;;11.90;3.95;;;54.00;34.80;52.60;101341;;;;589686;239;23135;-77
2023/09/08 09:32:49;;;;;;;8.77;4.10;;;54.00;34.80;52.70;101339;;;;589942;239;23114;-77
2023/09/08 09:35:18;;;;;;;7.07;3.05;;;54.30;34.70;52.60;101340;;;;596139;239;23060;-78
2023/09/08 09:37:49;;;;;;;4.22;3.42;;;54.20;34.80;52.90;101337;;;;589357;239;23065;-78
2023/09/08 09:40:17;;;;;;;6.53;3.92;;;54.40;34.60;53.00;101343;;;;585296;239;23037;-77
2023/09/08 09:42:46;;;;;;;12.93;4.28;;;54.50;34.10;53.10;101332;;;;589065;239;23094;-78
2023/09/08 09:45:12;;;;;;;16.67;4.65;;;54.80;34.40;53.10;101331;;;;589278;239;23104;-78
2023/09/08 09:47:40;;;;;;;11.30;3.95;;;54.90;34.40;52.90;101337;;;;589189;239;23089;-77
2023/09/08 09:50:08;;;;;;;3.83;3.55;;;54.70;34.40;53.00;101341;;;;589288;239;23075;-77
2023/09/08 09:52:36;;;;;;;4.85;3.80;;;54.70;34.40;52.60;101341;;;;589120;239;23045;-77
2023/09/08 09:55:04;;;;;;;9.52;4.60;;;54.50;34.60;52.40;101337;;;;589138;239;23099;-77
2023/09/08 09:57:32;;;;;;;17.48;5.70;;;54.40;34.30;52.70;101331;;;;589258;239;23092;-78
2023/09/08 10:00:00;;;;;;;11.32;4.75;;;54.50;35.10;52.40;101329;;;;589103;239;23128;-77
2023/09/08 10:02:30;;;;;;;5.65;4.10;;;54.40;34.70;52.20;101332;;;;589394;239;24071;-77
2023/09/08 10:04:56;;;;;;;5.80;4.00;;;54.40;34.40;52.10;101323;;;;584877;237;23104;-77
2023/09/08 10:07:27;;;;;;;15.43;6.25;;;54.20;34.10;51.90;101330;;;;594582;240;23083;-77
2023/09/08 10:09:52;;;;;;;15.25;6.53;;;53.90;34.40;50.20;101336;;;;585245;241;23067;-77
2023/09/08 10:12:20;;;;;;;11.05;7.43;;;52.70;34.90;48.40;101330;;;;596269;237;23054;-77
2023/09/08 10:14:47;;;;;;;12.13;7.25;;;51.10;36.10;46.40;101334;;;;587657;240;23165;-79
2023/09/08 10:17:20;;;;;;;9.15;7.22;;;48.90;37.70;44.30;101327;;;;593536;241;23099;-78
2023/09/08 10:19:51;;;;;;;13.93;7.87;;;46.70;39.50;41.90;101333;;;;584663;241;23097;-77
2023/09/08 10:22:14;;;;;;;7.82;6.28;;;44.40;41.90;40.10;101330;;;;595143;237;23110;-77
2023/09/08 10:24:42;;;;;;;15.68;8.02;;;42.30;44.40;39.00;101334;;;;587809;241;23122;-77
2023/09/08 10:27:10;;;;;;;12.00;7.80;;;40.70;46.80;37.90;101326;;;;593469;237;23033;-75
2023/09/08 10:29:40;;;;;;;18.02;7.87;;;39.40;47.60;36.80;101318;;;;595243;237;23071;-76
2023/09/08 10:32:08;;;;;;;8.73;6.50;;;38.20;49.10;35.70;101319;;;;587410;240;23051;-77
2023/09/08 10:34:37;;;;;;;12.48;6.30;;;36.00;52.60;34.90;101324;;;;586758;241;23072;-77
2023/09/08 10:37:05;;;;;;;10.90;7.82;;;36.00;52.10;34.30;101319;;;;584373;242;23069;-76
2023/09/08 10:39:38;;;;;;;17.62;7.50;;;35.20;54.00;33.40;101314;;;;586484;241;23160;-76
2023/09/08 10:42:19;;;;;;;17.12;7.45;;;34.20;56.00;32.60;101313;;;;593211;237;24080;-77
2023/09/08 10:44:51;;;;;;;16.52;7.10;;;32.60;59.10;31.90;101309;;;;593797;237;24081;-77
2023/09/08 10:47:40;;;;;;;11.48;6.55;;;32.50;59.00;31.30;101316;;;;590050;240;23043;-76
2023/09/08 10:50:08;;;;;;;13.68;7.03;;;32.00;60.30;30.70;101308;;;;580720;241;23067;-77
2023/09/08 10:52:36;;;;;;;14.50;7.10;;;31.40;61.70;30.20;101313;;;;594327;237;24077;-76
2023/09/08 10:55:08;;;;;;;20.98;6.90;;;30.90;63.10;29.90;101298;;;;595195;237;23055;-76
2023/09/08 10:57:33;;;;;;;18.77;7.18;;;30.40;64.30;29.60;101299;;;;584211;241;23081;-77
2023/09/08 11:00:11;;;;;;;13.13;6.97;;;30.10;65.50;29.40;101296;;;;587600;241;23110;-77
2023/09/08 11:02:42;;;;;;;12.48;6.97;;;29.80;67.60;29.10;101300;;;;594855;237;23066;-76
2023/09/08 11:05:16;;;;;;;9.57;7.22;;;29.60;69.10;28.60;101297;;;;594260;237;24117;-75
2023/09/08 11:07:47;;;;;;;13.07;7.33;;;29.20;69.80;28.30;101286;;;;586846;240;24046;-76
2023/09/08 11:10:11;;;;;;;11.48;7.25;;;28.80;71.40;28.00;101291;;;;592926;241;23090;-77